sensor_id;sensor_type;location;lat;lon;timestamp;P1;durP1;ratioP1;P2;durP2;ratioP2
19599;SDS011;9947;57.722;12.012;2022-12-07T00:00:35;25.80;;;8.57;;
19599;SDS011;9947;57.722;12.012;2022-12-07T00:03:01;17.07;;;7.10;;
19599;SDS011;9947;57.722;12.012;2022-12-07T00:05:29;19.53;;;8.30;;
19599;SDS011;9947;57.722;12.012;2022-12-07T00:07:56;21.43;;;6.93;;
19599;SDS011;9947;57.722;12.012;2022-12-07T00:10:25;18.73;;;7.67;;
19599;SDS011;9947;57.722;12.012;2022-12-07T00:12:52;19.70;;;6.97;;
19599;SDS011;9947;57.722;12.012;2022-12-07T00:15:19;18.67;;;7.17;;
19599;SDS011;9947;57.722;12.012;2022-12-07T00:17:47;17.50;;;7.60;;
19599;SDS011;9947;57.722;12.012;2022-12-07T00:20:14;15.10;;;6.70;;
19599;SDS011;9947;57.722;12.012;2022-12-07T00:22:41;17.13;;;7.43;;
19599;SDS011;9947;57.722;12.012;2022-12-07T00:25:08;16.83;;;7.57;;
19599;SDS011;9947;57.722;12.012;2022-12-07T00:27:35;13.93;;;7.27;;
19599;SDS011;9947;57.722;12.012;2022-12-07T00:30:02;14.03;;;7.50;;
19599;SDS011;9947;57.722;12.012;2022-12-07T00:32:29;15.93;;;7.93;;
19599;SDS011;9947;57.722;12.012;2022-12-07T00:34:57;15.00;;;6.97;;
19599;SDS011;9947;57.722;12.012;2022-12-07T00:37:24;20.30;;;6.97;;
19599;SDS011;9947;57.722;12.012;2022-12-07T00:39:51;14.20;;;6.77;;
19599;SDS011;9947;57.722;12.012;2022-12-07T00:42:18;11.67;;;6.87;;
19599;SDS011;9947;57.722;12.012;2022-12-07T00:44:45;13.57;;;7.23;;
19599;SDS011;9947;57.722;12.012;2022-12-07T00:47:12;14.87;;;7.23;;
19599;SDS011;9947;57.722;12.012;2022-12-07T00:49:38;17.70;;;8.13;;
19599;SDS011;9947;57.722;12.012;2022-12-07T00:52:07;15.87;;;7.07;;
19599;SDS011;9947;57.722;12.012;2022-12-07T00:54:34;15.10;;;7.47;;
19599;SDS011;9947;57.722;12.012;2022-12-07T00:57:01;15.97;;;7.00;;
19599;SDS011;9947;57.722;12.012;2022-12-07T00:59:27;20.27;;;6.80;;
19599;SDS011;9947;57.722;12.012;2022-12-07T01:01:54;16.77;;;7.67;;
19599;SDS011;9947;57.722;12.012;2022-12-07T01:04:21;17.70;;;6.57;;
19599;SDS011;9947;57.722;12.012;2022-12-07T01:06:48;16.77;;;7.20;;
19599;SDS011;9947;57.722;12.012;2022-12-07T01:09:16;23.17;;;7.27;;
19599;SDS011;9947;57.722;12.012;2022-12-07T01:11:43;16.80;;;7.73;;
19599;SDS011;9947;57.722;12.012;2022-12-07T01:14:10;15.73;;;6.93;;
19599;SDS011;9947;57.722;12.012;2022-12-07T01:16:38;17.40;;;7.03;;
19599;SDS011;9947;57.722;12.012;2022-12-07T01:19:05;17.83;;;6.67;;
19599;SDS011;9947;57.722;12.012;2022-12-07T01:21:32;19.70;;;8.17;;
19599;SDS011;9947;57.722;12.012;2022-12-07T01:24:03;13.93;;;7.03;;
19599;SDS011;9947;57.722;12.012;2022-12-07T01:26:33;13.40;;;7.23;;
19599;SDS011;9947;57.722;12.012;2022-12-07T01:29:00;19.70;;;7.40;;
19599;SDS011;9947;57.722;12.012;2022-12-07T01:31:29;20.33;;;7.57;;
19599;SDS011;9947;57.722;12.012;2022-12-07T01:33:57;16.70;;;7.27;;
19599;SDS011;9947;57.722;12.012;2022-12-07T01:36:25;19.30;;;8.13;;
19599;SDS011;9947;57.722;12.012;2022-12-07T01:38:55;13.10;;;7.10;;
19599;SDS011;9947;57.722;12.012;2022-12-07T01:41:23;17.80;;;7.70;;
19599;SDS011;9947;57.722;12.012;2022-12-07T01:44:09;17.20;;;7.47;;
19599;SDS011;9947;57.722;12.012;2022-12-07T01:46:38;15.43;;;7.63;;
19599;SDS011;9947;57.722;12.012;2022-12-07T01:49:07;20.87;;;7.67;;
19599;SDS011;9947;57.722;12.012;2022-12-07T01:51:37;23.37;;;7.47;;
19599;SDS011;9947;57.722;12.012;2022-12-07T01:54:06;15.83;;;7.30;;
19599;SDS011;9947;57.722;12.012;2022-12-07T01:56:34;15.30;;;6.63;;
19599;SDS011;9947;57.722;12.012;2022-12-07T01:59:04;16.17;;;6.93;;
19599;SDS011;9947;57.722;12.012;2022-12-07T02:01:32;16.47;;;7.17;;
19599;SDS011;9947;57.722;12.012;2022-12-07T02:03:59;18.83;;;8.03;;
19599;SDS011;9947;57.722;12.012;2022-12-07T02:06:28;16.03;;;7.27;;
19599;SDS011;9947;57.722;12.012;2022-12-07T02:08:56;15.23;;;7.20;;
19599;SDS011;9947;57.722;12.012;2022-12-07T02:11:23;14.90;;;7.03;;
19599;SDS011;9947;57.722;12.012;2022-12-07T02:13:50;16.07;;;7.00;;
19599;SDS011;9947;57.722;12.012;2022-12-07T02:16:21;12.93;;;6.90;;
19599;SDS011;9947;57.722;12.012;2022-12-07T02:18:58;16.90;;;7.10;;
19599;SDS011;9947;57.722;12.012;2022-12-07T02:21:40;15.03;;;6.93;;
19599;SDS011;9947;57.722;12.012;2022-12-07T02:24:24;17.63;;;7.03;;
19599;SDS011;9947;57.722;12.012;2022-12-07T02:27:17;13.77;;;5.80;;
19599;SDS011;9947;57.722;12.012;2022-12-07T02:30:04;14.00;;;6.47;;
19599;SDS011;9947;57.722;12.012;2022-12-07T02:32:37;15.87;;;6.50;;
19599;SDS011;9947;57.722;12.012;2022-12-07T02:35:11;13.80;;;6.37;;
19599;SDS011;9947;57.722;12.012;2022-12-07T02:37:50;12.77;;;6.27;;
19599;SDS011;9947;57.722;12.012;2022-12-07T02:40:27;14.87;;;6.50;;
19599;SDS011;9947;57.722;12.012;2022-12-07T02:42:58;19.07;;;6.30;;
19599;SDS011;9947;57.722;12.012;2022-12-07T02:45:31;14.90;;;6.33;;
19599;SDS011;9947;57.722;12.012;2022-12-07T02:48:02;13.83;;;5.70;;
19599;SDS011;9947;57.722;12.012;2022-12-07T02:50:31;15.43;;;6.77;;
19599;SDS011;9947;57.722;12.012;2022-12-07T02:52:58;9.40;;;5.70;;
19599;SDS011;9947;57.722;12.012;2022-12-07T02:55:26;14.83;;;5.97;;
19599;SDS011;9947;57.722;12.012;2022-12-07T02:58:01;11.73;;;5.50;;
19599;SDS011;9947;57.722;12.012;2022-12-07T03:00:48;12.67;;;5.07;;
19599;SDS011;9947;57.722;12.012;2022-12-07T03:03:20;11.20;;;5.43;;
19599;SDS011;9947;57.722;12.012;2022-12-07T03:05:53;10.43;;;5.40;;
19599;SDS011;9947;57.722;12.012;2022-12-07T03:08:30;15.77;;;5.37;;
19599;SDS011;9947;57.722;12.012;2022-12-07T03:11:14;11.77;;;5.73;;
19599;SDS011;9947;57.722;12.012;2022-12-07T03:13:47;13.03;;;5.40;;
19599;SDS011;9947;57.722;12.012;2022-12-07T03:16:19;16.33;;;5.67;;
19599;SDS011;9947;57.722;12.012;2022-12-07T03:18:50;11.67;;;5.20;;
19599;SDS011;9947;57.722;12.012;2022-12-07T03:21:22;11.67;;;5.80;;
19599;SDS011;9947;57.722;12.012;2022-12-07T03:23:54;9.43;;;5.17;;
19599;SDS011;9947;57.722;12.012;2022-12-07T03:26:28;10.50;;;5.27;;
19599;SDS011;9947;57.722;12.012;2022-12-07T03:29:01;11.50;;;5.40;;
19599;SDS011;9947;57.722;12.012;2022-12-07T03:31:34;15.47;;;6.40;;
19599;SDS011;9947;57.722;12.012;2022-12-07T03:34:08;13.63;;;5.87;;
19599;SDS011;9947;57.722;12.012;2022-12-07T03:36:42;10.50;;;5.50;;
19599;SDS011;9947;57.722;12.012;2022-12-07T03:39:16;15.20;;;5.87;;
19599;SDS011;9947;57.722;12.012;2022-12-07T03:41:49;11.83;;;5.67;;
19599;SDS011;9947;57.722;12.012;2022-12-07T03:44:17;10.80;;;5.67;;
19599;SDS011;9947;57.722;12.012;2022-12-07T03:46:48;13.77;;;5.73;;
19599;SDS011;9947;57.722;12.012;2022-12-07T03:49:29;10.10;;;5.30;;
19599;SDS011;9947;57.722;12.012;2022-12-07T03:52:05;10.63;;;5.10;;
19599;SDS011;9947;57.722;12.012;2022-12-07T03:54:39;12.97;;;5.20;;
19599;SDS011;9947;57.722;12.012;2022-12-07T03:57:10;9.27;;;5.10;;
19599;SDS011;9947;57.722;12.012;2022-12-07T03:59:38;15.07;;;5.70;;
19599;SDS011;9947;57.722;12.012;2022-12-07T04:02:08;13.17;;;5.43;;
19599;SDS011;9947;57.722;12.012;2022-12-07T04:04:38;10.07;;;5.07;;
19599;SDS011;9947;57.722;12.012;2022-12-07T04:07:05;9.10;;;4.30;;
19599;SDS011;9947;57.722;12.012;2022-12-07T04:09:32;8.00;;;4.73;;
19599;SDS011;9947;57.722;12.012;2022-12-07T04:11:59;10.00;;;4.43;;
19599;SDS011;9947;57.722;12.012;2022-12-07T04:14:26;9.63;;;4.60;;
19599;SDS011;9947;57.722;12.012;2022-12-07T04:16:53;11.33;;;4.50;;
19599;SDS011;9947;57.722;12.012;2022-12-07T04:19:24;6.77;;;4.07;;
19599;SDS011;9947;57.722;12.012;2022-12-07T04:21:52;5.87;;;4.17;;
19599;SDS011;9947;57.722;12.012;2022-12-07T04:24:19;11.87;;;4.47;;
19599;SDS011;9947;57.722;12.012;2022-12-07T04:26:46;8.77;;;4.00;;
19599;SDS011;9947;57.722;12.012;2022-12-07T04:29:14;10.17;;;4.20;;
19599;SDS011;9947;57.722;12.012;2022-12-07T04:31:42;6.03;;;3.50;;
19599;SDS011;9947;57.722;12.012;2022-12-07T04:34:11;7.20;;;3.47;;
19599;SDS011;9947;57.722;12.012;2022-12-07T04:36:40;5.97;;;3.60;;
19599;SDS011;9947;57.722;12.012;2022-12-07T04:39:08;5.27;;;3.17;;
19599;SDS011;9947;57.722;12.012;2022-12-07T04:41:45;6.53;;;2.97;;
19599;SDS011;9947;57.722;12.012;2022-12-07T04:44:12;5.53;;;2.73;;
19599;SDS011;9947;57.722;12.012;2022-12-07T04:46:40;6.13;;;3.07;;
19599;SDS011;9947;57.722;12.012;2022-12-07T04:49:08;8.53;;;2.90;;
19599;SDS011;9947;57.722;12.012;2022-12-07T04:51:35;8.97;;;3.00;;
19599;SDS011;9947;57.722;12.012;2022-12-07T04:54:04;6.97;;;2.83;;
19599;SDS011;9947;57.722;12.012;2022-12-07T04:56:31;2.63;;;2.30;;
19599;SDS011;9947;57.722;12.012;2022-12-07T04:58:58;4.43;;;2.27;;
19599;SDS011;9947;57.722;12.012;2022-12-07T05:01:24;3.60;;;2.40;;
19599;SDS011;9947;57.722;12.012;2022-12-07T05:03:51;5.57;;;2.50;;
19599;SDS011;9947;57.722;12.012;2022-12-07T05:06:18;4.67;;;2.10;;
19599;SDS011;9947;57.722;12.012;2022-12-07T05:08:45;5.57;;;2.23;;
19599;SDS011;9947;57.722;12.012;2022-12-07T05:11:14;4.43;;;2.40;;
19599;SDS011;9947;57.722;12.012;2022-12-07T05:13:55;5.00;;;2.70;;
19599;SDS011;9947;57.722;12.012;2022-12-07T05:16:22;5.33;;;2.80;;
19599;SDS011;9947;57.722;12.012;2022-12-07T05:18:49;6.63;;;2.40;;
19599;SDS011;9947;57.722;12.012;2022-12-07T05:21:16;3.60;;;2.60;;
19599;SDS011;9947;57.722;12.012;2022-12-07T05:23:43;4.03;;;2.50;;
19599;SDS011;9947;57.722;12.012;2022-12-07T05:26:09;6.20;;;2.50;;
19599;SDS011;9947;57.722;12.012;2022-12-07T05:28:38;5.10;;;2.30;;
19599;SDS011;9947;57.722;12.012;2022-12-07T05:31:05;3.50;;;2.47;;
19599;SDS011;9947;57.722;12.012;2022-12-07T05:33:34;7.17;;;2.60;;
19599;SDS011;9947;57.722;12.012;2022-12-07T05:36:01;5.43;;;2.60;;
19599;SDS011;9947;57.722;12.012;2022-12-07T05:38:30;9.30;;;2.87;;
19599;SDS011;9947;57.722;12.012;2022-12-07T05:40:59;6.93;;;3.23;;
19599;SDS011;9947;57.722;12.012;2022-12-07T05:43:27;4.57;;;2.90;;
19599;SDS011;9947;57.722;12.012;2022-12-07T05:45:56;5.40;;;2.97;;
19599;SDS011;9947;57.722;12.012;2022-12-07T05:48:23;6.30;;;3.50;;
19599;SDS011;9947;57.722;12.012;2022-12-07T05:50:52;3.67;;;2.77;;
19599;SDS011;9947;57.722;12.012;2022-12-07T05:53:19;9.17;;;3.13;;
19599;SDS011;9947;57.722;12.012;2022-12-07T05:55:47;6.73;;;3.27;;
19599;SDS011;9947;57.722;12.012;2022-12-07T05:58:20;8.40;;;3.40;;
19599;SDS011;9947;57.722;12.012;2022-12-07T06:01:06;4.53;;;3.50;;
19599;SDS011;9947;57.722;12.012;2022-12-07T06:03:33;4.90;;;3.50;;
19599;SDS011;9947;57.722;12.012;2022-12-07T06:06:00;8.20;;;3.60;;
19599;SDS011;9947;57.722;12.012;2022-12-07T06:08:27;6.80;;;3.70;;
19599;SDS011;9947;57.722;12.012;2022-12-07T06:10:53;5.87;;;3.87;;
19599;SDS011;9947;57.722;12.012;2022-12-07T06:13:34;5.17;;;3.43;;
19599;SDS011;9947;57.722;12.012;2022-12-07T06:16:01;6.03;;;3.50;;
19599;SDS011;9947;57.722;12.012;2022-12-07T06:18:29;4.47;;;3.20;;
19599;SDS011;9947;57.722;12.012;2022-12-07T06:20:56;4.87;;;3.40;;
19599;SDS011;9947;57.722;12.012;2022-12-07T06:23:23;4.83;;;3.60;;
19599;SDS011;9947;57.722;12.012;2022-12-07T06:25:50;7.93;;;3.80;;
19599;SDS011;9947;57.722;12.012;2022-12-07T06:28:17;7.97;;;3.50;;
19599;SDS011;9947;57.722;12.012;2022-12-07T06:30:44;5.67;;;3.80;;
19599;SDS011;9947;57.722;12.012;2022-12-07T06:33:11;11.43;;;3.37;;
19599;SDS011;9947;57.722;12.012;2022-12-07T06:35:39;6.30;;;3.40;;
19599;SDS011;9947;57.722;12.012;2022-12-07T06:38:06;3.87;;;2.83;;
19599;SDS011;9947;57.722;12.012;2022-12-07T06:40:33;2.60;;;2.23;;
19599;SDS011;9947;57.722;12.012;2022-12-07T06:43:00;3.70;;;2.77;;
19599;SDS011;9947;57.722;12.012;2022-12-07T06:45:28;4.30;;;2.83;;
19599;SDS011;9947;57.722;12.012;2022-12-07T06:47:55;4.50;;;2.80;;
19599;SDS011;9947;57.722;12.012;2022-12-07T06:50:22;8.70;;;2.97;;
19599;SDS011;9947;57.722;12.012;2022-12-07T06:52:50;5.10;;;2.80;;
19599;SDS011;9947;57.722;12.012;2022-12-07T06:55:17;5.63;;;3.10;;
19599;SDS011;9947;57.722;12.012;2022-12-07T06:57:44;5.03;;;2.80;;
19599;SDS011;9947;57.722;12.012;2022-12-07T07:00:11;3.40;;;2.60;;
19599;SDS011;9947;57.722;12.012;2022-12-07T07:02:39;6.70;;;3.30;;
19599;SDS011;9947;57.722;12.012;2022-12-07T07:05:06;4.37;;;2.40;;
19599;SDS011;9947;57.722;12.012;2022-12-07T07:07:33;4.13;;;2.63;;
19599;SDS011;9947;57.722;12.012;2022-12-07T07:10:02;3.87;;;2.80;;
19599;SDS011;9947;57.722;12.012;2022-12-07T07:12:29;5.87;;;2.70;;
19599;SDS011;9947;57.722;12.012;2022-12-07T07:14:56;5.30;;;2.77;;
19599;SDS011;9947;57.722;12.012;2022-12-07T07:17:23;5.63;;;2.77;;
19599;SDS011;9947;57.722;12.012;2022-12-07T07:19:53;4.67;;;2.67;;
19599;SDS011;9947;57.722;12.012;2022-12-07T07:22:20;6.03;;;2.83;;
19599;SDS011;9947;57.722;12.012;2022-12-07T07:24:47;4.10;;;2.70;;
19599;SDS011;9947;57.722;12.012;2022-12-07T07:27:15;5.97;;;2.70;;
19599;SDS011;9947;57.722;12.012;2022-12-07T07:29:42;4.33;;;2.87;;
19599;SDS011;9947;57.722;12.012;2022-12-07T07:32:09;2.30;;;2.10;;
19599;SDS011;9947;57.722;12.012;2022-12-07T07:34:37;4.30;;;3.03;;
19599;SDS011;9947;57.722;12.012;2022-12-07T07:37:04;3.13;;;2.70;;
19599;SDS011;9947;57.722;12.012;2022-12-07T07:39:31;4.57;;;2.47;;
19599;SDS011;9947;57.722;12.012;2022-12-07T07:42:01;5.17;;;2.80;;
19599;SDS011;9947;57.722;12.012;2022-12-07T07:44:29;6.27;;;2.70;;
19599;SDS011;9947;57.722;12.012;2022-12-07T07:46:59;5.33;;;2.80;;
19599;SDS011;9947;57.722;12.012;2022-12-07T07:49:26;4.83;;;2.80;;
19599;SDS011;9947;57.722;12.012;2022-12-07T07:51:53;6.93;;;3.23;;
19599;SDS011;9947;57.722;12.012;2022-12-07T07:54:20;11.67;;;3.53;;
19599;SDS011;9947;57.722;12.012;2022-12-07T07:56:47;5.70;;;3.20;;
19599;SDS011;9947;57.722;12.012;2022-12-07T07:59:14;5.77;;;3.23;;
19599;SDS011;9947;57.722;12.012;2022-12-07T08:01:42;4.47;;;3.37;;
19599;SDS011;9947;57.722;12.012;2022-12-07T08:04:09;8.73;;;3.40;;
19599;SDS011;9947;57.722;12.012;2022-12-07T08:06:36;4.83;;;3.20;;
19599;SDS011;9947;57.722;12.012;2022-12-07T08:09:03;5.73;;;3.37;;
19599;SDS011;9947;57.722;12.012;2022-12-07T08:11:31;5.80;;;3.83;;
19599;SDS011;9947;57.722;12.012;2022-12-07T08:13:58;10.80;;;3.80;;
19599;SDS011;9947;57.722;12.012;2022-12-07T08:16:25;6.37;;;3.10;;
19599;SDS011;9947;57.722;12.012;2022-12-07T08:18:53;4.37;;;3.30;;
19599;SDS011;9947;57.722;12.012;2022-12-07T08:21:21;7.67;;;3.23;;
19599;SDS011;9947;57.722;12.012;2022-12-07T08:23:48;6.27;;;3.83;;
19599;SDS011;9947;57.722;12.012;2022-12-07T08:26:15;4.43;;;3.27;;
19599;SDS011;9947;57.722;12.012;2022-12-07T08:28:42;4.40;;;3.23;;
19599;SDS011;9947;57.722;12.012;2022-12-07T08:31:11;3.67;;;3.23;;
19599;SDS011;9947;57.722;12.012;2022-12-07T08:33:40;5.77;;;3.40;;
19599;SDS011;9947;57.722;12.012;2022-12-07T08:36:09;3.53;;;3.20;;
19599;SDS011;9947;57.722;12.012;2022-12-07T08:38:38;4.37;;;3.10;;
19599;SDS011;9947;57.722;12.012;2022-12-07T08:41:06;8.90;;;3.17;;
19599;SDS011;9947;57.722;12.012;2022-12-07T08:43:34;7.80;;;3.33;;
19599;SDS011;9947;57.722;12.012;2022-12-07T08:46:04;5.50;;;3.20;;
19599;SDS011;9947;57.722;12.012;2022-12-07T08:48:35;8.33;;;3.17;;
19599;SDS011;9947;57.722;12.012;2022-12-07T08:51:05;3.23;;;2.80;;
19599;SDS011;9947;57.722;12.012;2022-12-07T08:53:34;3.50;;;3.10;;
19599;SDS011;9947;57.722;12.012;2022-12-07T08:56:03;3.53;;;2.63;;
19599;SDS011;9947;57.722;12.012;2022-12-07T08:58:32;3.80;;;2.83;;
19599;SDS011;9947;57.722;12.012;2022-12-07T09:00:59;4.70;;;3.07;;
19599;SDS011;9947;57.722;12.012;2022-12-07T09:03:26;3.30;;;3.00;;
19599;SDS011;9947;57.722;12.012;2022-12-07T09:05:53;7.53;;;3.50;;
19599;SDS011;9947;57.722;12.012;2022-12-07T09:08:20;3.20;;;2.60;;
19599;SDS011;9947;57.722;12.012;2022-12-07T09:10:53;3.60;;;2.77;;
19599;SDS011;9947;57.722;12.012;2022-12-07T09:13:21;4.50;;;2.97;;
19599;SDS011;9947;57.722;12.012;2022-12-07T09:15:48;3.43;;;3.00;;
19599;SDS011;9947;57.722;12.012;2022-12-07T09:18:15;3.73;;;2.90;;
19599;SDS011;9947;57.722;12.012;2022-12-07T09:20:42;3.97;;;2.47;;
19599;SDS011;9947;57.722;12.012;2022-12-07T09:23:09;2.20;;;2.10;;
19599;SDS011;9947;57.722;12.012;2022-12-07T09:25:36;4.90;;;2.70;;
19599;SDS011;9947;57.722;12.012;2022-12-07T09:28:05;4.83;;;2.67;;
19599;SDS011;9947;57.722;12.012;2022-12-07T09:30:31;9.47;;;2.90;;
19599;SDS011;9947;57.722;12.012;2022-12-07T09:32:59;3.67;;;2.13;;
19599;SDS011;9947;57.722;12.012;2022-12-07T09:35:26;2.67;;;2.33;;
19599;SDS011;9947;57.722;12.012;2022-12-07T09:37:53;5.30;;;2.70;;
19599;SDS011;9947;57.722;12.012;2022-12-07T09:40:21;6.83;;;2.33;;
19599;SDS011;9947;57.722;12.012;2022-12-07T09:42:49;3.57;;;2.50;;
19599;SDS011;9947;57.722;12.012;2022-12-07T09:45:21;5.30;;;2.73;;
19599;SDS011;9947;57.722;12.012;2022-12-07T09:47:50;5.70;;;2.60;;
19599;SDS011;9947;57.722;12.012;2022-12-07T09:50:21;6.40;;;2.80;;
19599;SDS011;9947;57.722;12.012;2022-12-07T09:52:51;6.40;;;2.57;;
19599;SDS011;9947;57.722;12.012;2022-12-07T09:55:19;5.20;;;2.50;;
19599;SDS011;9947;57.722;12.012;2022-12-07T09:57:53;4.80;;;2.63;;
19599;SDS011;9947;57.722;12.012;2022-12-07T10:00:22;5.87;;;2.80;;
19599;SDS011;9947;57.722;12.012;2022-12-07T10:02:53;4.10;;;2.60;;
19599;SDS011;9947;57.722;12.012;2022-12-07T10:05:24;4.97;;;2.60;;
19599;SDS011;9947;57.722;12.012;2022-12-07T10:07:53;4.10;;;2.40;;
19599;SDS011;9947;57.722;12.012;2022-12-07T10:10:23;4.47;;;2.90;;
19599;SDS011;9947;57.722;12.012;2022-12-07T10:12:53;4.90;;;2.60;;
19599;SDS011;9947;57.722;12.012;2022-12-07T10:15:24;4.07;;;2.37;;
19599;SDS011;9947;57.722;12.012;2022-12-07T10:18:16;6.80;;;2.80;;
19599;SDS011;9947;57.722;12.012;2022-12-07T10:20:46;8.33;;;3.70;;
19599;SDS011;9947;57.722;12.012;2022-12-07T10:23:15;9.87;;;3.90;;
19599;SDS011;9947;57.722;12.012;2022-12-07T10:25:43;23.17;;;8.17;;
19599;SDS011;9947;57.722;12.012;2022-12-07T10:28:13;28.13;;;6.03;;
19599;SDS011;9947;57.722;12.012;2022-12-07T10:30:53;3.60;;;2.63;;
19599;SDS011;9947;57.722;12.012;2022-12-07T10:33:28;7.30;;;2.77;;
19599;SDS011;9947;57.722;12.012;2022-12-07T10:35:57;2.83;;;2.43;;
19599;SDS011;9947;57.722;12.012;2022-12-07T10:38:26;4.90;;;2.70;;
19599;SDS011;9947;57.722;12.012;2022-12-07T10:41:04;4.07;;;3.10;;
19599;SDS011;9947;57.722;12.012;2022-12-07T10:43:32;2.57;;;2.27;;
19599;SDS011;9947;57.722;12.012;2022-12-07T10:49:03;4.17;;;2.73;;
19599;SDS011;9947;57.722;12.012;2022-12-07T10:51:50;4.50;;;2.70;;
19599;SDS011;9947;57.722;12.012;2022-12-07T10:54:25;4.67;;;2.73;;
19599;SDS011;9947;57.722;12.012;2022-12-07T10:57:06;8.67;;;2.73;;
19599;SDS011;9947;57.722;12.012;2022-12-07T10:59:54;5.53;;;2.60;;
19599;SDS011;9947;57.722;12.012;2022-12-07T11:02:45;4.93;;;2.87;;
19599;SDS011;9947;57.722;12.012;2022-12-07T11:05:30;6.50;;;3.03;;
19599;SDS011;9947;57.722;12.012;2022-12-07T11:08:04;3.47;;;2.47;;
19599;SDS011;9947;57.722;12.012;2022-12-07T11:10:43;3.30;;;2.47;;
19599;SDS011;9947;57.722;12.012;2022-12-07T11:13:22;3.17;;;2.60;;
19599;SDS011;9947;57.722;12.012;2022-12-07T11:16:01;3.10;;;2.50;;
19599;SDS011;9947;57.722;12.012;2022-12-07T11:18:39;3.37;;;2.57;;
19599;SDS011;9947;57.722;12.012;2022-12-07T11:21:13;7.07;;;2.50;;
19599;SDS011;9947;57.722;12.012;2022-12-07T11:23:52;3.50;;;2.40;;
19599;SDS011;9947;57.722;12.012;2022-12-07T11:26:33;2.50;;;2.30;;
19599;SDS011;9947;57.722;12.012;2022-12-07T11:29:22;5.13;;;2.80;;
19599;SDS011;9947;57.722;12.012;2022-12-07T11:32:09;3.80;;;2.70;;
19599;SDS011;9947;57.722;12.012;2022-12-07T11:34:43;5.10;;;3.00;;
19599;SDS011;9947;57.722;12.012;2022-12-07T11:37:20;2.67;;;2.47;;
19599;SDS011;9947;57.722;12.012;2022-12-07T11:39:52;4.37;;;2.53;;
19599;SDS011;9947;57.722;12.012;2022-12-07T11:42:26;7.40;;;2.70;;
19599;SDS011;9947;57.722;12.012;2022-12-07T11:44:56;3.50;;;2.50;;
19599;SDS011;9947;57.722;12.012;2022-12-07T11:47:30;2.57;;;2.30;;
19599;SDS011;9947;57.722;12.012;2022-12-07T11:50:10;5.17;;;2.97;;
19599;SDS011;9947;57.722;12.012;2022-12-07T11:52:51;2.70;;;2.47;;
19599;SDS011;9947;57.722;12.012;2022-12-07T11:55:24;2.73;;;2.53;;
19599;SDS011;9947;57.722;12.012;2022-12-07T11:57:58;3.53;;;2.87;;
19599;SDS011;9947;57.722;12.012;2022-12-07T12:00:30;9.17;;;2.60;;
19599;SDS011;9947;57.722;12.012;2022-12-07T12:02:59;3.43;;;2.70;;
19599;SDS011;9947;57.722;12.012;2022-12-07T12:05:31;4.27;;;2.80;;
19599;SDS011;9947;57.722;12.012;2022-12-07T12:08:02;4.80;;;2.80;;
19599;SDS011;9947;57.722;12.012;2022-12-07T12:10:40;2.83;;;2.50;;
19599;SDS011;9947;57.722;12.012;2022-12-07T12:13:30;5.33;;;2.27;;
19599;SDS011;9947;57.722;12.012;2022-12-07T12:16:22;2.57;;;2.30;;
19599;SDS011;9947;57.722;12.012;2022-12-07T12:19:25;3.10;;;2.40;;
19599;SDS011;9947;57.722;12.012;2022-12-07T12:22:03;6.43;;;2.60;;
19599;SDS011;9947;57.722;12.012;2022-12-07T12:24:39;3.00;;;2.70;;
19599;SDS011;9947;57.722;12.012;2022-12-07T12:27:08;4.30;;;2.87;;
19599;SDS011;9947;57.722;12.012;2022-12-07T12:29:41;4.40;;;2.50;;
19599;SDS011;9947;57.722;12.012;2022-12-07T12:32:17;3.90;;;2.30;;
19599;SDS011;9947;57.722;12.012;2022-12-07T12:35:00;4.33;;;2.40;;
19599;SDS011;9947;57.722;12.012;2022-12-07T12:37:46;2.67;;;2.27;;
19599;SDS011;9947;57.722;12.012;2022-12-07T12:46:36;3.13;;;2.83;;
19599;SDS011;9947;57.722;12.012;2022-12-07T12:55:16;5.43;;;2.67;;
19599;SDS011;9947;57.722;12.012;2022-12-07T12:57:48;3.10;;;2.77;;
19599;SDS011;9947;57.722;12.012;2022-12-07T13:07:01;2.40;;;2.20;;
19599;SDS011;9947;57.722;12.012;2022-12-07T13:09:30;7.20;;;2.53;;
19599;SDS011;9947;57.722;12.012;2022-12-07T13:12:01;2.73;;;2.47;;
19599;SDS011;9947;57.722;12.012;2022-12-07T13:20:48;3.00;;;2.67;;
19599;SDS011;9947;57.722;12.012;2022-12-07T13:23:21;8.73;;;2.63;;
19599;SDS011;9947;57.722;12.012;2022-12-07T13:25:54;7.50;;;2.80;;
19599;SDS011;9947;57.722;12.012;2022-12-07T13:28:26;5.33;;;2.47;;
19599;SDS011;9947;57.722;12.012;2022-12-07T13:31:11;8.53;;;2.57;;
19599;SDS011;9947;57.722;12.012;2022-12-07T13:33:42;3.00;;;2.20;;
19599;SDS011;9947;57.722;12.012;2022-12-07T13:36:14;4.13;;;2.50;;
19599;SDS011;9947;57.722;12.012;2022-12-07T13:38:50;3.23;;;2.57;;
19599;SDS011;9947;57.722;12.012;2022-12-07T13:41:21;3.67;;;2.57;;
19599;SDS011;9947;57.722;12.012;2022-12-07T13:43:50;4.17;;;2.60;;
19599;SDS011;9947;57.722;12.012;2022-12-07T13:46:29;3.37;;;2.87;;
19599;SDS011;9947;57.722;12.012;2022-12-07T13:49:14;4.17;;;2.33;;
19599;SDS011;9947;57.722;12.012;2022-12-07T13:51:44;5.63;;;2.87;;
19599;SDS011;9947;57.722;12.012;2022-12-07T13:54:12;3.63;;;2.63;;
19599;SDS011;9947;57.722;12.012;2022-12-07T13:56:40;4.43;;;2.30;;
19599;SDS011;9947;57.722;12.012;2022-12-07T13:59:12;4.97;;;2.53;;
19599;SDS011;9947;57.722;12.012;2022-12-07T14:01:43;3.40;;;2.50;;
19599;SDS011;9947;57.722;12.012;2022-12-07T14:04:20;5.80;;;2.60;;
19599;SDS011;9947;57.722;12.012;2022-12-07T14:06:57;3.67;;;2.53;;
19599;SDS011;9947;57.722;12.012;2022-12-07T14:09:26;2.93;;;2.40;;
19599;SDS011;9947;57.722;12.012;2022-12-07T14:11:55;3.63;;;2.50;;
19599;SDS011;9947;57.722;12.012;2022-12-07T14:14:24;3.17;;;2.30;;
19599;SDS011;9947;57.722;12.012;2022-12-07T14:16:58;3.53;;;2.50;;
19599;SDS011;9947;57.722;12.012;2022-12-07T14:19:49;3.33;;;2.50;;
19599;SDS011;9947;57.722;12.012;2022-12-07T14:22:19;3.77;;;2.83;;
19599;SDS011;9947;57.722;12.012;2022-12-07T14:24:58;7.17;;;2.70;;
19599;SDS011;9947;57.722;12.012;2022-12-07T14:27:30;4.10;;;2.50;;
19599;SDS011;9947;57.722;12.012;2022-12-07T14:29:59;4.60;;;2.70;;
19599;SDS011;9947;57.722;12.012;2022-12-07T14:32:28;3.87;;;2.87;;
19599;SDS011;9947;57.722;12.012;2022-12-07T14:35:00;3.27;;;2.97;;
19599;SDS011;9947;57.722;12.012;2022-12-07T14:37:29;3.10;;;2.80;;
19599;SDS011;9947;57.722;12.012;2022-12-07T14:39:56;4.23;;;2.80;;
19599;SDS011;9947;57.722;12.012;2022-12-07T14:42:25;3.60;;;2.40;;
19599;SDS011;9947;57.722;12.012;2022-12-07T14:44:54;5.53;;;3.00;;
19599;SDS011;9947;57.722;12.012;2022-12-07T14:47:22;4.13;;;3.00;;
19599;SDS011;9947;57.722;12.012;2022-12-07T14:49:51;4.53;;;2.77;;
19599;SDS011;9947;57.722;12.012;2022-12-07T14:52:18;6.10;;;3.10;;
19599;SDS011;9947;57.722;12.012;2022-12-07T14:54:49;5.43;;;2.77;;
19599;SDS011;9947;57.722;12.012;2022-12-07T14:57:16;3.80;;;3.13;;
19599;SDS011;9947;57.722;12.012;2022-12-07T14:59:43;5.50;;;2.90;;
19599;SDS011;9947;57.722;12.012;2022-12-07T15:02:11;5.60;;;3.23;;
19599;SDS011;9947;57.722;12.012;2022-12-07T15:04:39;7.33;;;3.57;;
19599;SDS011;9947;57.722;12.012;2022-12-07T15:07:10;6.00;;;3.67;;
19599;SDS011;9947;57.722;12.012;2022-12-07T15:09:43;9.20;;;4.00;;
19599;SDS011;9947;57.722;12.012;2022-12-07T15:12:10;5.57;;;3.40;;
19599;SDS011;9947;57.722;12.012;2022-12-07T15:14:37;4.80;;;3.13;;
19599;SDS011;9947;57.722;12.012;2022-12-07T15:17:03;4.07;;;3.10;;
19599;SDS011;9947;57.722;12.012;2022-12-07T15:19:31;6.17;;;3.13;;
19599;SDS011;9947;57.722;12.012;2022-12-07T15:21:58;7.53;;;3.20;;
19599;SDS011;9947;57.722;12.012;2022-12-07T15:24:27;3.33;;;3.03;;
19599;SDS011;9947;57.722;12.012;2022-12-07T15:26:54;4.17;;;2.97;;
19599;SDS011;9947;57.722;12.012;2022-12-07T15:29:21;5.47;;;2.80;;
19599;SDS011;9947;57.722;12.012;2022-12-07T15:31:48;4.37;;;3.33;;